createdAt,value
2018-07-23T00:00:56.173Z,319.00
2018-07-23T00:01:56.962Z,320.00
2018-07-23T00:02:57.735Z,319.00
2018-07-23T00:03:58.533Z,319.00
2018-07-23T00:04:59.310Z,319.00
2018-07-23T00:06:00.085Z,320.00
2018-07-23T00:07:00.862Z,319.00
2018-07-23T00:08:01.646Z,319.00
2018-07-23T00:09:02.445Z,319.00
2018-07-23T00:10:03.214Z,319.00
2018-07-23T00:11:03.994Z,320.00
2018-07-23T00:12:04.770Z,319.00
2018-07-23T00:13:05.546Z,320.00
2018-07-23T00:14:06.357Z,319.00
2018-07-23T00:15:07.136Z,320.00
2018-07-23T00:16:07.921Z,319.00
2018-07-23T00:17:08.689Z,319.00
2018-07-23T00:18:09.470Z,319.00
2018-07-23T00:19:10.267Z,319.00
2018-07-23T00:20:11.052Z,320.00
2018-07-23T00:21:11.821Z,319.00
2018-07-23T00:22:12.599Z,320.00
2018-07-23T00:23:13.375Z,319.00
2018-07-23T00:24:14.187Z,320.00
2018-07-23T00:25:14.961Z,319.00
2018-07-23T00:26:15.734Z,319.00
2018-07-23T00:27:16.508Z,319.00
2018-07-23T00:28:17.282Z,319.00
2018-07-23T00:29:18.085Z,320.00
2018-07-23T00:30:18.861Z,319.00
2018-07-23T00:31:19.640Z,319.00
2018-07-23T00:32:20.420Z,319.00
2018-07-23T00:33:21.192Z,320.00
2018-07-23T00:34:21.998Z,320.00
2018-07-23T00:35:22.772Z,319.00
2018-07-23T00:36:23.545Z,319.00
2018-07-23T00:37:24.323Z,319.00
2018-07-23T00:38:25.108Z,319.00
2018-07-23T00:39:25.914Z,320.00
2018-07-23T00:40:26.690Z,319.00
2018-07-23T00:41:26.466Z,319.00
2018-07-23T00:42:28.244Z,320.00
2018-07-23T00:43:29.027Z,319.00
2018-07-23T00:44:29.829Z,319.00
2018-07-23T00:45:31.598Z,319.00
2018-07-23T00:46:31.376Z,319.00
2018-07-23T00:47:33.148Z,320.00
2018-07-23T00:48:32.927Z,319.00
2018-07-23T00:49:33.927Z,319.00
2018-07-23T00:50:33.703Z,319.00
2018-07-23T00:51:34.479Z,319.00
2018-07-23T00:52:35.251Z,319.00
2018-07-23T00:53:36.029Z,320.00
2018-07-23T00:54:36.836Z,319.00
2018-07-23T00:55:37.611Z,319.00
2018-07-23T00:56:38.394Z,319.00
2018-07-23T00:57:39.170Z,319.00
2018-07-23T00:58:39.944Z,320.00
2018-07-23T00:59:40.749Z,319.00
2018-07-23T01:00:41.530Z,319.00
2018-07-23T01:01:42.303Z,319.00
2018-07-23T01:02:43.079Z,319.00
2018-07-23T01:03:43.852Z,319.00
2018-07-23T01:04:44.658Z,319.00
2018-07-23T01:05:45.433Z,319.00
2018-07-23T01:06:46.215Z,319.00
2018-07-23T01:07:46.991Z,320.00
2018-07-23T01:08:47.767Z,319.00
2018-07-23T01:09:48.599Z,319.00
2018-07-23T01:10:48.348Z,319.00
2018-07-23T01:11:50.124Z,319.00
2018-07-23T01:12:50.912Z,319.00
2018-07-23T01:13:52.101Z,319.00
2018-07-23T01:23:32.168Z,319.00
2018-07-23T01:24:32.942Z,319.00
2018-07-23T01:25:33.742Z,320.00
2018-07-23T01:26:34.520Z,319.00
2018-07-23T01:27:35.292Z,320.00
2018-07-23T01:28:36.071Z,320.00
2018-07-23T01:29:36.851Z,320.00
2018-07-23T01:30:37.661Z,320.00
2018-07-23T01:31:38.433Z,320.00
2018-07-23T01:32:39.209Z,320.00
2018-07-23T01:33:39.995Z,320.00
2018-07-23T01:34:40.761Z,320.00
2018-07-23T01:35:41.570Z,320.00
2018-07-23T01:36:42.337Z,320.00
2018-07-23T01:37:43.118Z,320.00
2018-07-23T01:38:43.895Z,320.00
2018-07-23T01:39:44.670Z,319.00
2018-07-23T01:40:45.483Z,320.00
2018-07-23T01:41:46.262Z,320.00
2018-07-23T01:42:47.036Z,320.00
2018-07-23T01:43:47.813Z,320.00
2018-07-23T01:44:48.597Z,320.00
2018-07-23T01:45:49.395Z,320.00
2018-07-23T01:46:50.165Z,320.00
2018-07-23T01:47:50.947Z,320.00
2018-07-23T01:48:51.717Z,320.00
2018-07-23T01:49:52.494Z,320.00
2018-07-23T01:50:53.294Z,320.00
2018-07-23T01:51:54.072Z,320.00
2018-07-23T01:52:54.843Z,320.00
2018-07-23T01:53:55.621Z,320.00
2018-07-23T01:54:56.393Z,320.00
2018-07-23T01:55:57.198Z,320.00
2018-07-23T01:56:57.973Z,319.00
2018-07-23T01:57:59.749Z,319.00
2018-07-23T01:58:59.524Z,319.00
2018-07-23T02:00:00.307Z,319.00
2018-07-23T02:01:01.110Z,319.00
2018-07-23T02:02:01.904Z,319.00
2018-07-23T02:03:02.664Z,319.00
2018-07-23T02:04:03.523Z,320.00
2018-07-23T02:05:03.227Z,319.00
2018-07-23T02:06:05.027Z,319.00
2018-07-23T02:07:05.824Z,319.00
2018-07-23T02:08:06.609Z,319.00
2018-07-23T02:09:07.384Z,320.00
2018-07-23T02:10:08.158Z,319.00
2018-07-23T02:11:08.961Z,319.00
2018-07-23T02:12:09.736Z,319.00
2018-07-23T02:13:10.515Z,319.00
2018-07-23T02:14:11.296Z,319.00
2018-07-23T02:15:12.063Z,319.00
2018-07-23T02:16:12.879Z,319.00
2018-07-23T02:17:13.644Z,319.00
2018-07-23T02:18:14.458Z,320.00
2018-07-23T02:19:14.200Z,319.00
2018-07-23T02:20:15.973Z,319.00
2018-07-23T02:21:16.776Z,319.00
2018-07-23T02:22:17.560Z,319.00
2018-07-23T02:23:18.337Z,319.00
2018-07-23T02:24:19.114Z,319.00
2018-07-23T02:25:19.890Z,319.00
2018-07-23T02:26:20.700Z,319.00
2018-07-23T02:27:21.472Z,320.00
2018-07-23T02:28:22.250Z,319.00
2018-07-23T02:29:23.025Z,319.00
2018-07-23T02:30:23.799Z,320.00
2018-07-23T02:31:24.605Z,320.00
2018-07-23T02:32:25.381Z,319.00
2018-07-23T02:33:26.161Z,319.00
2018-07-23T02:34:26.940Z,319.00
2018-07-23T02:35:27.725Z,319.00
2018-07-23T02:36:28.524Z,320.00
2018-07-23T02:37:29.308Z,319.00
2018-07-23T02:38:30.072Z,319.00
2018-07-23T02:39:30.850Z,319.00
2018-07-23T02:40:34.409Z,320.00
2018-07-23T02:41:32.213Z,320.00
2018-07-23T02:42:32.988Z,319.00
2018-07-23T02:43:33.776Z,320.00
2018-07-23T02:44:34.576Z,319.00
2018-07-23T02:45:35.351Z,319.00
2018-07-23T02:46:36.124Z,319.00
2018-07-23T02:47:36.904Z,319.00
2018-07-23T02:48:37.678Z,320.00
2018-07-23T02:49:38.499Z,320.00
2018-07-23T02:50:39.270Z,320.00
2018-07-23T02:51:40.050Z,319.00
2018-07-23T02:52:40.822Z,320.00
2018-07-23T02:53:41.598Z,320.00
2018-07-23T02:54:42.400Z,320.00
2018-07-23T02:55:43.186Z,320.00
2018-07-23T02:56:43.960Z,320.00
2018-07-23T02:57:44.736Z,319.00
2018-07-23T02:58:45.512Z,320.00
2018-07-23T02:59:46.480Z,320.00
2018-07-23T03:00:46.097Z,320.00
2018-07-23T03:01:47.875Z,320.00
2018-07-23T03:02:48.654Z,320.00
2018-07-23T03:03:49.425Z,320.00
2018-07-23T03:04:50.231Z,320.00
2018-07-23T03:05:51.008Z,320.00
2018-07-23T03:06:51.799Z,320.00
2018-07-23T03:07:52.570Z,320.00
2018-07-23T03:08:53.349Z,320.00
2018-07-23T03:09:54.150Z,320.00
2018-07-23T03:10:54.927Z,320.00
2018-07-23T03:11:55.705Z,320.00
2018-07-23T03:12:56.911Z,321.00
2018-07-23T03:13:57.175Z,320.00
2018-07-23T03:14:56.503Z,320.00
2018-07-23T03:25:34.291Z,320.00
2018-07-23T03:26:36.067Z,320.00
2018-07-23T03:27:36.837Z,320.00
2018-07-23T03:28:37.616Z,320.00
2018-07-23T03:29:38.388Z,321.00
2018-07-23T03:30:39.195Z,320.00
2018-07-23T03:31:39.972Z,321.00
2018-07-23T03:32:40.746Z,320.00
2018-07-23T03:33:41.519Z,321.00
2018-07-23T03:34:42.302Z,320.00
2018-07-23T03:35:43.117Z,320.00
2018-07-23T03:36:43.890Z,320.00
2018-07-23T03:37:44.674Z,320.00
2018-07-23T03:38:45.440Z,320.00
2018-07-23T03:39:46.217Z,320.00
2018-07-23T03:40:47.018Z,321.00
2018-07-23T03:41:47.796Z,321.00
2018-07-23T03:42:48.569Z,321.00
2018-07-23T03:43:49.344Z,321.00
2018-07-23T03:44:50.120Z,321.00
2018-07-23T03:45:50.946Z,320.00
2018-07-23T03:46:51.708Z,320.00
2018-07-23T03:47:52.570Z,321.00
2018-07-23T03:48:52.272Z,321.00
2018-07-23T03:49:54.047Z,322.00
2018-07-23T03:50:54.859Z,321.00
2018-07-23T03:51:55.637Z,322.00
2018-07-23T03:52:56.420Z,321.00
2018-07-23T03:53:57.187Z,321.00
2018-07-23T03:54:57.971Z,321.00
2018-07-23T03:55:58.771Z,321.00
2018-07-23T03:56:59.546Z,322.00
2018-07-23T03:58:00.323Z,321.00
2018-07-23T03:59:01.099Z,322.00
2018-07-23T04:00:01.875Z,321.00
2018-07-23T04:01:02.684Z,322.00
2018-07-23T04:02:03.462Z,321.00
2018-07-23T04:03:04.239Z,321.00
2018-07-23T04:04:05.017Z,321.00
2018-07-23T04:05:05.790Z,321.00
2018-07-23T04:06:05.594Z,324.00
2018-07-23T04:07:07.372Z,324.00
2018-07-23T04:08:08.153Z,324.00
2018-07-23T04:09:08.923Z,322.00
2018-07-23T04:10:09.711Z,324.00
2018-07-23T04:11:10.513Z,322.00
2018-07-23T04:12:11.297Z,322.00
2018-07-23T04:13:12.066Z,322.00
2018-07-23T04:14:12.925Z,324.00
2018-07-23T04:15:12.630Z,325.00
2018-07-23T04:16:14.434Z,324.00
2018-07-23T04:17:15.211Z,325.00
2018-07-23T04:18:15.990Z,324.00
2018-07-23T04:19:16.774Z,325.00
2018-07-23T04:20:17.544Z,324.00
2018-07-23T04:21:18.349Z,324.00
2018-07-23T04:22:19.126Z,324.00
2018-07-23T04:23:19.900Z,325.00
2018-07-23T04:24:20.674Z,325.00
2018-07-23T04:25:21.453Z,324.00
2018-07-23T04:26:22.277Z,325.00
2018-07-23T04:27:23.045Z,324.00
2018-07-23T04:28:23.822Z,325.00
2018-07-23T04:29:24.599Z,325.00
2018-07-23T04:30:25.376Z,325.00
2018-07-23T04:31:26.181Z,326.00
2018-07-23T04:32:26.961Z,326.00
2018-07-23T04:33:27.743Z,326.00
2018-07-23T04:34:27.603Z,326.00
2018-07-23T04:35:28.322Z,326.00
2018-07-23T04:36:30.133Z,326.00
2018-07-23T04:37:30.900Z,326.00
2018-07-23T04:38:31.679Z,326.00
2018-07-23T04:39:32.452Z,326.00
2018-07-23T04:40:33.228Z,326.00
2018-07-23T04:41:34.031Z,327.00
2018-07-23T04:42:34.813Z,326.00
2018-07-23T04:43:35.597Z,326.00
2018-07-23T04:44:36.367Z,327.00
2018-07-23T04:45:37.142Z,327.00
2018-07-23T04:46:37.952Z,327.00
2018-07-23T04:47:38.728Z,328.00
2018-07-23T04:48:39.505Z,327.00
2018-07-23T04:49:40.289Z,327.00
2018-07-23T04:50:41.092Z,328.00
2018-07-23T04:51:40.873Z,328.00
2018-07-23T04:52:42.650Z,328.00
2018-07-23T04:53:43.429Z,328.00
2018-07-23T04:54:44.202Z,328.00
2018-07-23T04:55:44.980Z,328.00
2018-07-23T04:56:45.863Z,329.00
2018-07-23T04:57:45.557Z,329.00
2018-07-23T04:58:47.334Z,329.00
2018-07-23T04:59:48.115Z,329.00
2018-07-23T05:00:48.894Z,329.00
2018-07-23T05:01:49.696Z,329.00
2018-07-23T05:02:50.485Z,329.00
2018-07-23T05:03:51.250Z,329.00
2018-07-23T05:04:52.031Z,330.00
2018-07-23T05:05:52.801Z,330.00
2018-07-23T05:06:53.623Z,330.00
2018-07-23T05:07:54.395Z,330.00
2018-07-23T05:08:55.173Z,330.00
2018-07-23T05:09:55.959Z,330.00
2018-07-23T05:10:55.733Z,330.00
2018-07-23T05:11:57.537Z,330.00
2018-07-23T05:12:58.311Z,331.00
2018-07-23T05:13:59.094Z,331.00
2018-07-23T05:14:59.869Z,330.00
2018-07-23T05:16:00.673Z,330.00
2018-07-23T05:17:00.454Z,331.00
2018-07-23T05:18:02.232Z,331.00
2018-07-23T05:19:04.009Z,331.00
2018-07-23T05:20:04.216Z,332.00
2018-07-23T05:21:05.482Z,332.00
2018-07-23T05:22:03.793Z,332.00
2018-07-23T05:23:04.055Z,333.00
2018-07-23T05:24:18.791Z,334.00
2018-07-23T05:25:19.568Z,333.00
2018-07-23T05:26:20.348Z,333.00
2018-07-23T05:27:21.150Z,334.00
2018-07-23T05:28:21.928Z,334.00
2018-07-23T05:29:22.716Z,334.00
2018-07-23T05:30:23.479Z,336.00
2018-07-23T05:31:24.275Z,334.00
2018-07-23T05:32:25.063Z,336.00
2018-07-23T05:33:25.837Z,336.00
2018-07-23T05:34:26.620Z,336.00
2018-07-23T05:35:27.409Z,336.00
2018-07-23T05:36:28.165Z,336.00
2018-07-23T05:37:28.988Z,336.00
2018-07-23T05:38:29.793Z,337.00
2018-07-23T05:39:29.542Z,337.00
2018-07-23T05:40:31.306Z,337.00
2018-07-23T05:41:32.088Z,337.00
2018-07-23T05:42:32.890Z,338.00
2018-07-23T05:43:33.665Z,338.00
2018-07-23T05:44:34.441Z,339.00
2018-07-23T05:45:35.220Z,338.00
2018-07-23T05:46:35.993Z,338.00
2018-07-23T05:47:36.803Z,339.00
2018-07-23T05:48:37.579Z,339.00
2018-07-23T05:49:38.356Z,339.00
2018-07-23T05:50:39.140Z,340.00
2018-07-23T05:51:39.915Z,340.00
2018-07-23T05:52:40.717Z,340.00
2018-07-23T05:53:41.494Z,340.00
2018-07-23T05:54:42.279Z,340.00
2018-07-23T05:55:43.064Z,341.00
2018-07-23T05:56:43.833Z,340.00
2018-07-23T05:57:44.707Z,341.00
2018-07-23T05:58:44.439Z,341.00
2018-07-23T05:59:45.192Z,341.00
2018-07-23T06:00:46.970Z,341.00
2018-07-23T06:01:48.744Z,342.00
2018-07-23T06:02:48.554Z,342.00
2018-07-23T06:03:49.349Z,342.00
2018-07-23T06:04:50.106Z,342.00
2018-07-23T06:05:50.890Z,342.00
2018-07-23T06:06:51.795Z,343.00
2018-07-23T06:07:51.478Z,344.00
2018-07-23T06:08:53.267Z,344.00
2018-07-23T06:09:53.034Z,345.00
2018-07-23T06:10:54.815Z,345.00
2018-07-23T06:11:55.587Z,345.00
2018-07-23T06:12:56.391Z,346.00
2018-07-23T06:13:57.168Z,350.00
2018-07-23T06:14:57.954Z,351.00
2018-07-23T06:15:58.737Z,352.00
2018-07-23T06:16:59.510Z,353.00
2018-07-23T06:18:00.319Z,352.00
2018-07-23T06:19:01.119Z,353.00
2018-07-23T06:20:00.872Z,350.00
2018-07-23T06:21:02.657Z,349.00
2018-07-23T06:22:03.435Z,350.00
2018-07-23T06:23:04.244Z,351.00
2018-07-23T06:24:05.017Z,351.00
2018-07-23T06:25:05.792Z,351.00
2018-07-23T06:26:06.570Z,351.00
2018-07-23T06:27:07.349Z,343.00
2018-07-23T06:28:08.170Z,343.00
2018-07-23T06:29:08.942Z,351.00
2018-07-23T06:30:09.761Z,343.00
2018-07-23T06:31:09.496Z,343.00
2018-07-23T06:32:11.272Z,343.00
2018-07-23T06:33:12.079Z,355.00
2018-07-23T06:34:12.856Z,361.00
2018-07-23T06:35:13.635Z,358.00
2018-07-23T06:36:14.411Z,345.00
2018-07-23T06:37:15.187Z,346.00
2018-07-23T06:38:15.997Z,346.00
2018-07-23T06:39:16.765Z,348.00
2018-07-23T06:40:17.546Z,348.00
2018-07-23T06:41:18.315Z,349.00
2018-07-23T06:42:19.097Z,349.00
2018-07-23T06:43:19.934Z,363.00
2018-07-23T06:44:19.676Z,349.00
2018-07-23T06:45:21.452Z,349.00
2018-07-23T06:46:22.227Z,353.00
2018-07-23T06:47:23.028Z,350.00
2018-07-23T06:48:23.821Z,351.00
2018-07-23T06:49:24.597Z,351.00
2018-07-23T06:50:25.372Z,352.00
2018-07-23T06:51:26.148Z,353.00
2018-07-23T06:52:26.924Z,353.00
2018-07-23T06:53:27.738Z,353.00
2018-07-23T06:54:28.515Z,354.00
2018-07-23T06:55:29.288Z,366.00
2018-07-23T06:56:30.067Z,368.00
2018-07-23T06:57:30.941Z,368.00
2018-07-23T06:58:30.652Z,368.00
2018-07-23T06:59:32.429Z,369.00
2018-07-23T07:00:33.217Z,369.00
2018-07-23T07:01:33.988Z,367.00
2018-07-23T07:02:34.764Z,365.00
2018-07-23T07:03:35.570Z,365.00
2018-07-23T07:04:36.348Z,365.00
2018-07-23T07:05:37.124Z,365.00
2018-07-23T07:06:37.903Z,366.00
2018-07-23T07:07:38.684Z,367.00
2018-07-23T07:08:39.488Z,368.00
2018-07-23T07:09:40.265Z,368.00
2018-07-23T07:10:41.043Z,369.00
2018-07-23T07:11:41.824Z,370.00
2018-07-23T07:12:42.595Z,370.00
2018-07-23T07:13:43.400Z,370.00
2018-07-23T07:14:44.179Z,370.00
2018-07-23T07:15:44.960Z,372.00
2018-07-23T07:16:45.740Z,372.00
2018-07-23T07:17:46.518Z,372.00
2018-07-23T07:18:50.808Z,370.00
2018-07-23T07:19:57.673Z,374.00
2018-07-23T07:20:57.396Z,372.00
2018-07-23T07:21:59.174Z,375.00
2018-07-23T07:22:59.953Z,375.00
2018-07-23T07:24:00.755Z,375.00
2018-07-23T07:25:01.536Z,376.00
2018-07-23T07:26:02.314Z,373.00
2018-07-23T07:27:03.088Z,377.00
2018-07-23T07:28:03.865Z,377.00
2018-07-23T07:29:04.668Z,377.00
2018-07-23T07:30:05.442Z,377.00
2018-07-23T07:31:06.303Z,377.00
2018-07-23T07:32:06.005Z,377.00
2018-07-23T07:33:07.781Z,379.00
2018-07-23T07:34:08.592Z,379.00
2018-07-23T07:35:09.366Z,379.00
2018-07-23T07:36:10.140Z,376.00
2018-07-23T07:37:10.918Z,379.00
2018-07-23T07:38:11.759Z,380.00
2018-07-23T07:39:11.506Z,377.00
2018-07-23T07:40:13.280Z,380.00
2018-07-23T07:41:14.054Z,381.00
2018-07-23T07:42:14.832Z,380.00
2018-07-23T07:43:15.607Z,380.00
2018-07-23T07:44:17.404Z,380.00
2018-07-23T07:45:17.183Z,380.00
2018-07-23T07:46:18.953Z,380.00
2018-07-23T07:47:18.727Z,380.00
2018-07-23T07:48:19.502Z,380.00
2018-07-23T07:49:20.308Z,380.00
2018-07-23T07:50:21.083Z,380.00
2018-07-23T07:51:21.858Z,380.00
2018-07-23T07:52:22.644Z,380.00
2018-07-23T07:53:23.419Z,380.00
2018-07-23T07:54:24.232Z,380.00
2018-07-23T07:55:24.999Z,380.00
2018-07-23T07:56:25.776Z,380.00
2018-07-23T07:57:26.556Z,380.00
2018-07-23T07:58:26.328Z,380.00
2018-07-23T07:59:28.133Z,388.00
2018-07-23T08:00:29.908Z,384.00
2018-07-23T08:01:29.682Z,385.00
2018-07-23T08:02:30.457Z,385.00
2018-07-23T08:03:31.231Z,385.00
2018-07-23T08:04:32.044Z,386.00
2018-07-23T08:05:32.823Z,388.00
2018-07-23T08:06:33.598Z,388.00
2018-07-23T08:07:34.374Z,389.00
2018-07-23T08:08:35.232Z,390.00
2018-07-23T08:09:34.968Z,391.00
2018-07-23T08:10:36.739Z,391.00
2018-07-23T08:11:37.520Z,391.00
2018-07-23T08:12:38.348Z,392.00
2018-07-23T08:13:38.072Z,392.00
2018-07-23T08:14:39.876Z,393.00
2018-07-23T08:15:40.659Z,392.00
2018-07-23T08:16:41.427Z,393.00
2018-07-23T08:17:42.213Z,393.00
2018-07-23T08:18:42.981Z,392.00
2018-07-23T08:19:44.788Z,394.00
2018-07-23T08:20:44.563Z,394.00
2018-07-23T08:21:45.342Z,394.00
2018-07-23T08:22:46.122Z,394.00
2018-07-23T08:23:46.901Z,394.00
2018-07-23T08:24:47.709Z,394.00
2018-07-23T08:25:48.485Z,396.00
2018-07-23T08:26:49.266Z,396.00
2018-07-23T08:27:50.095Z,396.00
2018-07-23T08:28:49.834Z,396.00
2018-07-23T08:29:51.646Z,396.00
2018-07-23T08:30:52.420Z,396.00
2018-07-23T08:31:53.314Z,396.00
2018-07-23T08:32:52.973Z,396.00
2018-07-23T08:33:54.751Z,396.00
2018-07-23T08:34:55.558Z,396.00
2018-07-23T08:35:56.336Z,397.00
2018-07-23T08:36:57.163Z,396.00
2018-07-23T08:37:56.888Z,396.00
2018-07-23T08:38:58.670Z,396.00
2018-07-23T08:39:59.475Z,396.00
2018-07-23T08:41:00.337Z,396.00
2018-07-23T08:42:00.065Z,396.00
2018-07-23T08:43:01.863Z,396.00
2018-07-23T08:44:01.602Z,396.00
2018-07-23T08:45:03.528Z,396.00
2018-07-23T08:46:03.438Z,396.00
2018-07-23T08:47:04.141Z,397.00
2018-07-23T08:48:05.919Z,396.00
2018-07-23T08:49:06.696Z,396.00
2018-07-23T08:50:07.495Z,396.00
2018-07-23T08:51:08.287Z,397.00
2018-07-23T08:52:09.053Z,397.00
2018-07-23T08:53:09.835Z,397.00
2018-07-23T08:54:10.608Z,398.00
2018-07-23T08:55:11.494Z,398.00
2018-07-23T08:56:11.293Z,397.00
2018-07-23T08:57:11.990Z,397.00
2018-07-23T08:58:13.763Z,398.00
2018-07-23T08:59:14.628Z,397.00
2018-07-23T09:00:14.355Z,398.00
2018-07-23T09:01:16.380Z,397.00
2018-07-23T09:02:16.092Z,398.00
2018-07-23T09:03:16.846Z,398.00
2018-07-23T09:04:18.622Z,398.00
2018-07-23T09:05:19.437Z,398.00
2018-07-23T09:06:20.215Z,397.00
2018-07-23T09:07:20.987Z,397.00
2018-07-23T09:08:21.828Z,397.00
2018-07-23T09:09:21.625Z,397.00
2018-07-23T09:10:22.364Z,398.00
2018-07-23T09:11:24.150Z,397.00
2018-07-23T09:12:24.920Z,398.00
2018-07-23T09:13:25.698Z,397.00
2018-07-23T09:14:26.470Z,398.00
2018-07-23T09:15:27.278Z,398.00
2018-07-23T09:16:28.050Z,397.00
2018-07-23T09:17:28.826Z,398.00
2018-07-23T09:18:29.609Z,398.00
2018-07-23T09:19:30.386Z,398.00
2018-07-23T09:20:31.326Z,398.00
2018-07-23T09:21:32.105Z,398.00
2018-07-23T09:22:32.880Z,398.00
2018-07-23T09:23:33.658Z,398.00
2018-07-23T09:24:34.897Z,398.00
2018-07-23T09:31:27.008Z,398.00
2018-07-23T09:32:27.784Z,398.00
2018-07-23T09:33:28.563Z,398.00
2018-07-23T09:34:29.335Z,398.00
2018-07-23T09:35:30.115Z,399.00
2018-07-23T09:36:30.918Z,398.00
2018-07-23T09:37:31.703Z,399.00
2018-07-23T09:38:32.469Z,398.00
2018-07-23T09:39:33.258Z,398.00
2018-07-23T09:40:34.020Z,399.00
2018-07-23T09:41:34.826Z,398.00
2018-07-23T09:42:35.601Z,398.00
2018-07-23T09:43:36.380Z,398.00
2018-07-23T09:44:37.156Z,399.00
2018-07-23T09:45:37.972Z,398.00
2018-07-23T09:46:37.751Z,398.00
2018-07-23T09:47:39.515Z,398.00
2018-07-23T09:48:40.292Z,396.00
2018-07-23T09:49:41.068Z,398.00
2018-07-23T09:50:41.845Z,398.00
2018-07-23T09:51:42.656Z,398.00
2018-07-23T09:52:43.454Z,398.00
2018-07-23T09:53:43.216Z,399.00
2018-07-23T09:54:44.980Z,398.00
2018-07-23T09:55:45.756Z,398.00
2018-07-23T09:56:46.666Z,398.00
2018-07-23T09:57:46.363Z,398.00
2018-07-23T09:58:48.139Z,379.00
2018-07-23T09:59:48.919Z,369.00
2018-07-23T10:00:49.690Z,370.00
2018-07-23T10:01:50.495Z,398.00
2018-07-23T10:02:51.297Z,399.00
2018-07-23T10:03:52.062Z,363.00
2018-07-23T10:04:52.825Z,358.00
2018-07-23T10:05:53.605Z,398.00
2018-07-23T10:06:54.405Z,363.00
2018-07-23T10:07:55.180Z,362.00
2018-07-23T10:08:55.958Z,372.00
2018-07-23T10:09:57.734Z,399.00
2018-07-23T10:10:57.531Z,397.00
2018-07-23T10:11:57.311Z,400.00
2018-07-23T10:12:59.089Z,399.00
2018-07-23T10:13:59.869Z,398.00
2018-07-23T10:15:00.645Z,398.00
2018-07-23T10:16:01.441Z,398.00
2018-07-23T10:17:02.229Z,398.00
2018-07-23T10:18:03.006Z,399.00
2018-07-23T10:19:03.787Z,399.00
2018-07-23T10:20:04.560Z,399.00
2018-07-23T10:21:05.333Z,399.00
2018-07-23T10:22:06.200Z,398.00
2018-07-23T10:23:05.919Z,398.00
2018-07-23T10:24:07.700Z,398.00
2018-07-23T10:25:08.472Z,397.00
2018-07-23T10:26:09.248Z,398.00
2018-07-23T10:27:10.059Z,397.00
2018-07-23T10:28:10.832Z,391.00
2018-07-23T10:29:11.603Z,368.00
2018-07-23T10:30:12.384Z,364.00
2018-07-23T10:31:13.153Z,358.00
2018-07-23T10:32:13.959Z,363.00
2018-07-23T10:33:14.739Z,365.00
2018-07-23T10:34:15.510Z,393.00
2018-07-23T10:35:16.307Z,399.00
2018-07-23T10:36:17.076Z,398.00
2018-07-23T10:37:17.883Z,397.00
2018-07-23T10:38:18.659Z,398.00
2018-07-23T10:39:19.435Z,397.00
2018-07-23T10:40:20.211Z,399.00
2018-07-23T10:41:20.985Z,398.00
2018-07-23T10:42:21.820Z,399.00
2018-07-23T10:43:22.593Z,397.00
2018-07-23T10:44:27.192Z,396.00
2018-07-23T10:45:22.421Z,397.00
2018-07-23T10:46:24.198Z,399.00
2018-07-23T10:47:25.000Z,380.00
2018-07-23T10:48:25.782Z,372.00
2018-07-23T10:49:26.555Z,358.00
2018-07-23T10:50:27.333Z,358.00
2018-07-23T10:51:28.109Z,363.00
2018-07-23T10:52:28.920Z,397.00
2018-07-23T10:53:29.694Z,397.00
2018-07-23T10:54:30.472Z,398.00
2018-07-23T10:55:30.254Z,399.00
2018-07-23T10:56:32.026Z,398.00
2018-07-23T10:57:32.836Z,397.00
2018-07-23T10:58:33.610Z,398.00
2018-07-23T10:59:34.397Z,399.00
2018-07-23T11:00:35.165Z,397.00
2018-07-23T11:01:35.956Z,379.00
2018-07-23T11:02:36.760Z,366.00
2018-07-23T11:03:37.536Z,367.00
2018-07-23T11:04:38.398Z,388.00
2018-07-23T11:05:38.101Z,369.00
2018-07-23T11:06:39.886Z,372.00
2018-07-23T11:07:40.686Z,381.00
2018-07-23T11:08:41.463Z,398.00
2018-07-23T11:09:42.247Z,373.00
2018-07-23T11:10:43.018Z,372.00
2018-07-23T11:11:43.797Z,374.00
2018-07-23T11:12:44.710Z,361.00
2018-07-23T11:13:44.374Z,361.00
2018-07-23T11:14:46.150Z,364.00
2018-07-23T11:15:46.929Z,357.00
2018-07-23T11:16:47.723Z,357.00
2018-07-23T11:17:48.519Z,393.00
2018-07-23T11:18:49.319Z,398.00
2018-07-23T11:19:50.081Z,360.00
2018-07-23T11:20:50.856Z,364.00
2018-07-23T11:21:52.081Z,369.00
2018-07-23T11:22:51.451Z,399.00
2018-07-23T11:23:53.243Z,399.00
2018-07-23T11:24:54.093Z,381.00
2018-07-23T11:25:53.778Z,399.00
2018-07-23T11:26:55.554Z,368.00
2018-07-23T11:27:58.122Z,366.00
2018-07-23T11:31:02.433Z,399.00
2018-07-23T11:32:02.305Z,362.00
2018-07-23T11:33:02.360Z,364.00
2018-07-23T11:34:02.069Z,398.00
2018-07-23T11:35:03.849Z,398.00
2018-07-23T11:36:04.616Z,398.00
2018-07-23T11:37:04.391Z,398.00
2018-07-23T11:38:06.201Z,398.00
2018-07-23T11:39:06.977Z,367.00
2018-07-23T11:40:07.748Z,364.00
2018-07-23T11:41:08.523Z,362.00
2018-07-23T11:42:09.298Z,398.00
2018-07-23T11:43:10.104Z,357.00
2018-07-23T11:44:10.877Z,398.00
2018-07-23T11:45:11.672Z,399.00
2018-07-23T11:46:24.426Z,398.00
2018-07-23T11:47:12.287Z,398.00
2018-07-23T11:48:13.028Z,398.00
2018-07-23T11:49:14.800Z,398.00
2018-07-23T11:50:15.579Z,398.00
2018-07-23T11:51:16.355Z,397.00
2018-07-23T11:52:17.152Z,397.00
2018-07-23T11:53:18.008Z,397.00
2018-07-23T11:54:17.956Z,397.00
2018-07-23T11:55:18.883Z,397.00
2018-07-23T11:56:19.590Z,396.00
2018-07-23T11:57:21.458Z,397.00
2018-07-23T11:58:21.190Z,398.00
2018-07-23T11:59:22.966Z,397.00
2018-07-23T12:00:23.762Z,397.00
2018-07-23T12:01:24.534Z,396.00
2018-07-23T12:02:25.313Z,397.00
2018-07-23T12:03:26.120Z,397.00
2018-07-23T12:04:26.986Z,397.00
2018-07-23T12:05:26.669Z,396.00
2018-07-23T12:06:28.445Z,396.00
2018-07-23T12:07:28.238Z,396.00
2018-07-23T12:08:30.043Z,396.00
2018-07-23T12:09:30.819Z,396.00
2018-07-23T12:10:31.593Z,365.00
2018-07-23T12:11:32.369Z,344.00
2018-07-23T12:12:33.159Z,356.00
2018-07-23T12:13:33.995Z,360.00
2018-07-23T12:14:34.757Z,398.00
2018-07-23T12:15:34.542Z,389.00
2018-07-23T12:16:36.313Z,398.00
2018-07-23T12:17:37.117Z,398.00
2018-07-23T12:18:36.904Z,397.00
2018-07-23T12:19:38.677Z,398.00
2018-07-23T12:20:39.477Z,397.00
2018-07-23T12:21:40.230Z,397.00
2018-07-23T12:22:41.016Z,397.00
2018-07-23T12:23:41.818Z,366.00
2018-07-23T12:24:42.592Z,397.00
2018-07-23T12:25:43.371Z,385.00
2018-07-23T12:26:44.230Z,398.00
2018-07-23T12:27:43.966Z,398.00
2018-07-23T12:28:44.747Z,397.00
2018-07-23T12:29:46.520Z,397.00
2018-07-23T12:30:47.315Z,397.00
2018-07-23T12:31:48.096Z,398.00
2018-07-23T12:32:48.868Z,397.00
2018-07-23T12:33:50.082Z,382.00
2018-07-23T12:34:50.866Z,360.00
2018-07-23T12:35:50.641Z,358.00
2018-07-23T12:36:51.414Z,358.00
2018-07-23T12:37:52.198Z,362.00
2018-07-23T12:38:53.002Z,378.00
2018-07-23T12:39:53.855Z,397.00
2018-07-23T12:40:53.555Z,397.00
2018-07-23T12:41:55.333Z,398.00
2018-07-23T12:42:56.104Z,399.00
2018-07-23T12:43:56.919Z,397.00
2018-07-23T12:44:57.698Z,398.00
2018-07-23T12:45:58.490Z,397.00
2018-07-23T12:46:59.268Z,369.00
2018-07-23T12:48:00.107Z,365.00
2018-07-23T12:48:59.838Z,397.00
2018-07-23T12:50:01.616Z,397.00
2018-07-23T12:51:02.395Z,396.00
2018-07-23T12:52:03.169Z,397.00
2018-07-23T12:53:04.030Z,396.00
2018-07-23T12:54:03.766Z,392.00
2018-07-23T12:55:05.545Z,377.00
2018-07-23T12:56:06.317Z,369.00
2018-07-23T12:57:07.097Z,365.00
2018-07-23T12:58:07.958Z,362.00
2018-07-23T12:59:07.689Z,358.00
2018-07-23T13:00:09.465Z,357.00
2018-07-23T13:01:10.329Z,358.00
2018-07-23T13:02:10.033Z,361.00
2018-07-23T13:03:11.808Z,373.00
2018-07-23T13:04:12.621Z,384.00
2018-07-23T13:05:13.399Z,399.00